Beaver County Airport
KBVI : now visible

Airfield :











YOU CAN JOIN US ON...

 
LOGIN :

Register | Disclaimer

   EN    FR    IT 

 









Legend :    VFR   Marginal VFR   IFR   Intensive IFR   Very Intensive IFR
Visi :
Ceiling :
>= 8 km
>= 3000ft
5 to 8 km
1000 to 3000 ft
1500m to 5 km
500 to 1000 ft
800 to 1500m
200 to 500 ft
< 800m
< 200 ft
Symbols :   Thunderstorms  Fog  Heavy snow  Heavy precipitations  Wind > 20 kt






- Airport Elevation : 1253 ft


KBVI - Beaver County

CURRENT METAR :
  • 170835Z AUTO 24008KT 10SM OVC009 00/M01 A2963 RMK AO2 T10031011

EXPIRED METARs :
  • 170815Z AUTO 24007KT 10SM OVC009 00/M01 A2962 RMK AO2 T10051012
  • 170755Z AUTO 23009KT 10SM BKN007 OVC013 M01/M01 A2962 RMK AO2 T10061013
  • 170735Z AUTO 22009KT 10SM BKN005 OVC015 M01/M01 A2962 RMK AO2 T10061013
  • 170715Z AUTO 23006KT 7SM OVC005 M01/M01 A2961 RMK AO2 T10071015
  • 170655Z AUTO 24008KT 5SM UP OVC005 M01/M01 A2961 RMK AO2 T10071013
  • 170635Z AUTO 23005KT 3SM UP OVC005 M01/M01 A2961 RMK AO2 T10061012
  • 170615Z AUTO 23006KT 3SM UP OVC005 M01/M01 A2961 RMK AO2 T10071014
  • 170555Z AUTO 23005KT 2 1/2SM UP OVC005 M01/M01 A2961 RMK AO2 T10081015

TAF KBVI
Valid from the 17 at 08:00 until the 18 at 06:00 UTC


170804Z 1708/1806 24008KT P6SM -SHSN OVC007
FM171200 25010KT P6SM OVC015
FM172300 22007KT 2SM -SHSN OVC008
KZOB FIR / North America



MET'MAP, your aeronautical weather chart ! - Copyright ORBIFLY December 2007 - Disclaimer

ORBIFLY MET'MAP TEAM :

Programming & Development : Alexandra Zaïnal
Concept & original design : Baudouin d'Aumeries
Assistance for programming : Marc-Olivier Méhu
Technical & hardware support : Manuel Goepfert

Contact : metmap@orbifly.com




SOURCES & CREDITS :

   NOAA       Earth
Advisory